KIFP/IFP METAR and TAF weather

Enter ICAO airport designator
Station Type Date Time Source
KIFP METAR 2019/07/18 11:35 UTC NOAA

KIFP 181135Z AUTO 21005KT 10SM CLR 31/07 A2982 RMK AO2


Station Type Date Time Source
KIFP Decoded METAR 2019/07/18 11:35 UTC NOAA

Bullhead City, Laughlin/Bullhead International Airport, AZ, United States (KIFP) 35-09-27N 114-33-34W
Jul 18, 2019 - 07:35 AM EDT / 2019.07.18 1135 UTC
Wind: from the SSW (210 degrees) at 6 MPH (5 KT):0
Visibility: 10 mile(s):0
Sky conditions: clear
Temperature: 87 F (31 C)
Dew Point: 44 F (7 C)
Relative Humidity: 22%
Pressure (altimeter): 29.82 in. Hg (1009 hPa)
ob: KIFP 181135Z AUTO 21005KT 10SM CLR 31/07 A2982 RMK AO2
cycle: 11

Station Type Date Time Source
KIFP TAF 2019/07/18 12:24 UTC NOAA

TAF KIFP 181121Z 1812/1912 VRB05KT P6SM SKC
FM181700 18010KT P6SM SKC
FM182000 19015G23KT P6SM SKC
FM190400 16010KT P6SM SKC
FM190800 VRB05KT P6SM SKC

Example: see airport list